Spanish Springs, Nevada
Current Conditions -  °F | °C
As of 12:35 AM on Saturday 25 Oct 2014 (Local Time) from KRTS Reporting Station
Clear Clear  
Wind Chill: 42°   Ceiling: Unl
Heat Index: 45°   Visibility: 10mi
Dew Point: 19°   Wind: 5mph
Humidity: 37%   Direction: 350°N
Pressure: 29.99"   Gusts: NA
Location:  39.6582°N, 119.695°W
Report Text: KRTS 250735Z AUTO 35004KT 10SM CLR 07/M07 A2999 RMK AO2
Loading
Personal Weather Stations






























Interactive Weather Map
Tropical Storm Tracking
New forecast layout! Learn more

10-Day Weather Forecast

Advertisements
Track Severe Weather on mobile